Huvudsida
METAR-TAF:

METAR-TAF

Flygplatser :

Tulear flygplats

Toliara, Madagaskar

latitud: 23-23S, longitud: 043-44E, höjd: 8 m

METAR: saknas

Tid: 00:28 (21:28 UTC)

Väderprognos

Denna rapport gjordes för 4 timmar och 28 minuter sedan, klockan 17:00 UTC
Prognos gäller från 19 kl. 18 UTC till 20 kl. 18 UTC
Vind 8 kt från väst/sydväst
Sikt 10 km eller mer
Spridda moln på en höjd av 2000 ft, Cumulonimbus.
Spridda moln på en höjd av 4000 ft
Sannolikhet 40% :
Temporärt
från 19 kl. 18 UTC till 19 kl. 22 UTC
Sikt: 4500 m
åska, regn
Blir
från 19 kl. 20 UTC till 19 kl. 22 UTC
Spridda moln på en höjd av 2000 ft
Sannolikhet 30% :
Temporärt
från 19 kl. 22 UTC till 20 kl. 14 UTC
Sikt: 4500 m
regn
Blir
från 20 kl. 02 UTC till 20 kl. 04 UTC
Vind 10 kt från syd

TAF: FMST 191700Z 1918/2018 24008KT 9999 SCT020CB SCT040 PROB40 TEMPO 1918/1922 4500 TSRA BECMG 1920/1922 SCT020 PROB30 TEMPO 1922/2014 4500 RA BECMG 2002/2004 18010KT

Aktuella väderrapporter och prognoser från 4000 flygplatser (METAR- och TAF-rapporter).

De tillgängliga stationerna syns som gula och röda prickar på kartan.

För musen över prickarna för att se namnen på stationerna.

Klicka sedan för att få väderrapporter och prognoser.

För att ändra kartan: Klicka på de gröna knapparna med ett svart kors på för att zooma in; den gröna knappen med ett streck på för att zooma ut; eller på de gröna pilarna för angränsande kartor.


METAR-TAF: